Jackson, Mississippi
Current Conditions -  °F | °C
As of 4:53 PM on Tuesday 25 Nov 2014 (Local Time) from KHKS Reporting Station
Clear Clear  
Wind Chill: 46°   Ceiling: Unl
Heat Index: 48°   Visibility: 10mi
Dew Point: 26°   Wind: 5mph
Humidity: 42%   Direction: 350°N
Pressure: 30.19"   Gusts: NA
Location:  32.3°N, 90.18°W
Report Text: KHKS 252253Z 35004KT 10SM CLR 09/M03 A3019 RMK AO2 SLP218 T00891033
Loading
Personal Weather Stations






























Interactive Weather Map New forecast layout! Learn more

10-Day Weather Forecast

Advertisements
Track Severe Weather on mobile